Awenge, Ontario

6:17 PM EDT on March 22, 2017 (GMT -0400)
| | Change Station

Elev -9999 ft 0.00 °N, 0.00 °E | Updated 2 seconds ago

Clear
Clear
°F
Feels Like °F
N
Wind Variable Wind from North
Gusts mph

Today
High -- | Low -- °F
--% Chance of Precip.
Yesterday
High -- | Low -- °F
Precip. -- in
Pressure 30.58 in
Visibility 15.0 miles
Clouds Few 4200 ft
Few 22000 ft
Few 25000 ft
Dew Point Not available.
Humidity Not available.
Rainfall --
Snow Depth Not available.
7:36 AM 7:53 PM
Waning Crescent, 29% visible
METAR CYAM 222200Z 35011KT 15SM FEW042 FEW220 FEW250 M04/M15 A3053 RMK SC1CC1CI1 SC TR CC TR SLP355
Pressure 30.58 in
Visibility 15.0 miles
Clouds Few 4200 ft
Few 22000 ft
Few 25000 ft
Dew Point Not available.
Humidity Not available.
Rainfall --
Snow Depth Not available.
7:36 AM 7:53 PM
Waning Crescent, 29% visible
METAR CYAM 222200Z 35011KT 15SM FEW042 FEW220 FEW250 M04/M15 A3053 RMK SC1CC1CI1 SC TR CC TR SLP355

Get Severe Weather Alerts

Thanks for signing up!

Be on the lookout for a verification email in your inbox.

You'll start receiving the daily forecast at 8 AM.

×

10-Day Weather Forecast

Almanac

Astronomy

Mar. 22, 2017 Rise Set
Actual Time
Civil Twilight
Nautical Twilight
Astronomical Twilight
Moon
Length of Visible Light
Length of Day
Tomorrow will be .
, % of the Moon is Illuminated

Today's Extremes

Country Highs Country Lows

Community

WunderPhotos

Upload Photos

1,962,540 photos uploaded!

WunderBlog® & News

Nearby

Air Quality

  Air Quality AQ Index Pollutant
Not available.

Snow Depth

Station Depth Elevation

Earthquake Activity

City Distance Mag. Time & Date
Minimum magnitude displayed is 2.5.

Earthquake Activity

City Distance Mag. Time & Date
Minimum magnitude displayed is 2.5.

Coastal Water Temperatures

Place Temperature

Stations

Nearby Weather Stations

Station Location Temp. Windchill Dew Point Humidity Wind Precip. Elev Updated Type
                   

Watches & Warnings

There are currently no watches in effect.